Time;durP1;ratioP1;P1;durP2;ratioP2;P2;SDS_P1;SDS_P2;PMS_P1;PMS_P2;Temp;Humidity;BMP_temperature;BMP_pressure;BME280_temperature;BME280_humidity;BME280_pressure;Samples;Min_cycle;Max_cycle;Signal;HPM_P1;HPM_P2
2024/03/11 00:01:46;;;;;;;16.70;13.30;;;;;;;8.59;81.59;97653.04;226831;1273;22555;-81
2024/03/11 00:06:51;;;;;;;16.80;13.10;;;;;;;8.54;81.74;97654.37;226732;1273;25285;-80
2024/03/11 00:11:56;;;;;;;15.20;12.60;;;;;;;8.49;82.17;97648.97;226867;1273;22533;-79
2024/03/11 00:17:02;;;;;;;15.80;12.60;;;;;;;8.45;82.44;97644.41;226723;1273;24979;-79
2024/03/11 00:22:05;;;;;;;18.60;12.20;;;;;;;8.43;82.26;97645.02;226659;1272;22541;-80
2024/03/11 00:27:08;;;;;;;16.30;13.20;;;;;;;8.38;82.52;97642.26;226817;1273;22528;-80
2024/03/11 00:32:14;;;;;;;15.50;11.60;;;;;;;8.32;82.63;97641.63;226817;1272;24227;-80
2024/03/11 00:37:16;;;;;;;15.70;12.70;;;;;;;8.27;82.78;97642.17;226803;1273;22537;-80
2024/03/11 00:42:18;;;;;;;16.10;11.60;;;;;;;8.21;82.89;97635.52;226830;1273;22538;-80
2024/03/11 00:47:23;;;;;;;16.40;12.00;;;;;;;8.15;82.88;97637.89;226667;1271;22525;-81
2024/03/11 00:52:26;;;;;;;14.40;11.50;;;;;;;8.08;83.12;97631.35;226589;1273;243195;-80
2024/03/11 00:57:29;;;;;;;13.80;11.00;;;;;;;8.01;82.95;97626.08;226680;1273;22513;-80
2024/03/11 01:02:34;;;;;;;12.30;8.70;;;;;;;7.95;83.20;97617.36;226673;1273;22530;-80
2024/03/11 01:07:37;;;;;;;13.50;11.10;;;;;;;7.91;83.71;97611.16;226774;1273;24232;-80
2024/03/11 01:12:48;;;;;;;14.30;11.10;;;;;;;7.90;83.92;97601.54;226796;1272;22639;-80
2024/03/11 01:17:49;;;;;;;13.90;10.40;;;;;;;7.90;83.91;97604.36;226864;1273;24308;-80
2024/03/11 01:22:52;;;;;;;13.00;10.60;;;;;;;7.88;83.62;97597.64;226896;1273;22530;-80
2024/03/11 01:27:55;;;;;;;11.30;9.10;;;;;;;7.83;83.82;97588.27;226680;1273;22545;-80
2024/03/11 01:32:57;;;;;;;14.00;10.80;;;;;;;7.83;84.16;97584.38;226789;1273;22545;-79
2024/03/11 01:37:59;;;;;;;9.00;7.30;;;;;;;7.85;84.32;97573.18;226850;1273;22542;-80
2024/03/11 01:43:01;;;;;;;14.00;10.20;;;;;;;7.85;84.29;97577.91;226691;1273;22550;-80
2024/03/11 01:48:04;;;;;;;12.50;10.20;;;;;;;7.83;84.11;97573.86;226760;1273;25274;-79
2024/03/11 01:53:10;;;;;;;11.60;9.50;;;;;;;7.81;84.09;97566.25;226869;1270;22563;-80
2024/03/11 01:58:13;;;;;;;12.30;9.50;;;;;;;7.79;84.38;97559.09;226855;1273;22969;-79
2024/03/11 02:03:16;;;;;;;12.60;10.10;;;;;;;7.83;84.28;97559.30;226885;1272;22592;-79
2024/03/11 02:08:21;;;;;;;11.50;9.60;;;;;;;7.85;83.97;97572.54;226864;1270;25413;-80
2024/03/11 02:13:24;;;;;;;12.50;9.60;;;;;;;7.88;83.89;97578.86;226881;1273;22579;-79
2024/03/11 02:18:26;;;;;;;10.40;8.60;;;;;;;7.91;84.17;97578.52;226795;1270;22546;-79
2024/03/11 02:23:28;;;;;;;12.30;9.30;;;;;;;7.92;84.04;97570.02;226892;1272;22571;-80
2024/03/11 02:28:30;;;;;;;11.60;9.50;;;;;;;7.94;84.20;97576.86;226726;1271;22554;-80
2024/03/11 02:33:32;;;;;;;9.90;8.40;;;;;;;7.98;84.02;97577.80;226672;1273;22520;-80
2024/03/11 02:38:37;;;;;;;11.70;9.40;;;;;;;8.00;83.99;97578.93;226911;1273;22561;-80
2024/03/11 02:43:39;;;;;;;12.20;9.10;;;;;;;8.02;83.97;97577.79;226831;1271;23273;-81
2024/03/11 02:48:42;;;;;;;11.50;9.00;;;;;;;8.02;84.24;97575.92;226686;1273;22666;-81
2024/03/11 02:53:45;;;;;;;10.20;8.60;;;;;;;7.98;84.25;97582.02;226859;1272;22465;-81
2024/03/11 02:58:48;;;;;;;10.20;8.60;;;;;;;7.96;84.20;97589.94;226877;1273;22522;-81
2024/03/11 03:03:50;;;;;;;9.60;7.90;;;;;;;7.95;84.03;97603.13;226891;1269;22665;-81
2024/03/11 03:08:52;;;;;;;10.00;8.30;;;;;;;7.97;84.67;97616.89;226978;1270;22535;-81
2024/03/11 03:13:54;;;;;;;11.20;8.80;;;;;;;7.99;84.07;97621.58;226761;1270;22557;-81
2024/03/11 03:18:56;;;;;;;13.00;8.20;;;;;;;8.01;84.65;97622.11;226913;1267;22534;-81
2024/03/11 03:23:59;;;;;;;12.30;8.10;;;;;;;8.06;84.58;97623.73;226896;1270;22536;-81
2024/03/11 03:29:01;;;;;;;10.50;7.80;;;;;;;8.09;84.23;97620.59;226888;1273;25274;-81
2024/03/11 03:34:04;;;;;;;9.50;7.30;;;;;;;8.12;84.24;97620.27;226874;1273;22560;-81
2024/03/11 03:39:10;;;;;;;9.40;7.80;;;;;;;8.10;83.94;97619.70;226975;1273;22535;-81
2024/03/11 03:44:12;;;;;;;9.60;7.70;;;;;;;8.10;84.36;97617.95;226731;1270;22601;-81
2024/03/11 03:49:14;;;;;;;10.30;8.10;;;;;;;8.10;84.51;97622.44;226903;1273;22553;-81
2024/03/11 03:54:17;;;;;;;9.10;7.80;;;;;;;8.08;84.39;97613.91;226816;1273;22544;-80
2024/03/11 03:59:21;;;;;;;11.30;7.90;;;;;;;8.07;84.22;97618.02;226925;1272;22533;-81
2024/03/11 04:04:24;;;;;;;9.20;8.00;;;;;;;8.06;84.03;97624.61;226744;1273;22538;-81
2024/03/11 04:09:27;;;;;;;11.80;7.40;;;;;;;8.05;84.13;97624.90;226806;1270;22540;-81
2024/03/11 04:14:29;;;;;;;10.80;8.20;;;;;;;8.07;84.40;97618.42;226892;1273;23278;-80
2024/03/11 04:19:31;;;;;;;9.30;7.30;;;;;;;8.07;84.20;97620.13;226714;1273;22553;-81
2024/03/11 04:24:38;;;;;;;9.50;7.30;;;;;;;8.05;84.04;97626.88;226866;1273;22541;-80
2024/03/11 04:29:40;;;;;;;9.70;7.40;;;;;;;8.03;84.39;97635.09;226812;1273;22602;-81
2024/03/11 04:34:43;;;;;;;9.80;7.20;;;;;;;8.03;84.10;97635.54;226729;1273;22585;-80
2024/03/11 04:39:45;;;;;;;11.40;8.20;;;;;;;8.05;84.32;97640.52;226871;1269;25264;-81
2024/03/11 04:44:49;;;;;;;12.30;8.50;;;;;;;8.05;84.23;97641.98;226897;1273;22572;-80
2024/03/11 04:49:52;;;;;;;9.50;8.00;;;;;;;8.06;83.94;97648.86;226842;1273;22538;-81
2024/03/11 04:54:55;;;;;;;9.70;8.30;;;;;;;8.08;84.19;97656.88;226861;1269;22541;-79
2024/03/11 04:59:58;;;;;;;10.70;7.90;;;;;;;8.09;84.28;97664.09;226699;1273;23422;-82
2024/03/11 05:05:03;;;;;;;11.40;8.60;;;;;;;8.11;84.43;97667.53;226897;1273;22650;-82
2024/03/11 05:10:12;;;;;;;11.80;8.60;;;;;;;8.10;84.45;97662.67;226765;1273;22526;-81
2024/03/11 05:15:14;;;;;;;13.50;9.90;;;;;;;8.10;84.72;97664.05;226767;1273;22582;-81
2024/03/11 05:20:16;;;;;;;11.90;9.10;;;;;;;8.11;84.42;97667.70;226900;1267;22527;-81
2024/03/11 05:25:18;;;;;;;13.20;9.80;;;;;;;8.11;84.69;97669.92;226747;1273;22549;-81
2024/03/11 05:30:21;;;;;;;13.60;9.80;;;;;;;8.11;84.49;97672.11;226965;1273;22535;-81
2024/03/11 05:35:23;;;;;;;13.50;10.10;;;;;;;8.12;84.94;97670.70;226976;1272;22543;-81
2024/03/11 05:40:26;;;;;;;13.40;9.80;;;;;;;8.11;84.95;97678.59;226923;1270;22618;-81
2024/03/11 05:45:29;;;;;;;13.10;10.70;;;;;;;8.10;84.90;97681.33;226963;1254;22668;-81
2024/03/11 05:50:36;;;;;;;13.80;10.30;;;;;;;8.14;85.28;97676.65;226935;1272;22639;-80
2024/03/11 05:55:41;;;;;;;14.20;10.60;;;;;;;8.16;85.43;97684.23;226901;1267;22538;-81
2024/03/11 06:00:46;;;;;;;16.20;11.30;;;;;;;8.21;85.21;97686.08;226825;1268;22534;-79
2024/03/11 06:05:48;;;;;;;16.20;10.90;;;;;;;8.27;85.30;97694.96;226934;1270;22530;-80
2024/03/11 06:10:50;;;;;;;15.20;11.50;;;;;;;8.32;85.09;97705.10;226817;1273;22549;-80
2024/03/11 06:15:53;;;;;;;14.90;11.10;;;;;;;8.34;85.47;97708.15;226931;1271;22563;-80
2024/03/11 06:20:55;;;;;;;16.10;11.40;;;;;;;8.39;85.46;97716.88;226952;1269;22541;-81
2024/03/11 06:25:57;;;;;;;14.70;11.00;;;;;;;8.42;85.46;97721.83;226958;1269;22559;-81
2024/03/11 06:31:01;;;;;;;13.90;11.20;;;;;;;8.47;85.21;97724.13;226977;1270;22541;-80
2024/03/11 06:36:04;;;;;;;14.60;11.50;;;;;;;8.54;85.46;97722.23;226946;1272;22565;-81
2024/03/11 06:41:06;;;;;;;15.60;12.10;;;;;;;8.59;85.48;97720.92;226947;1267;22618;-80
2024/03/11 06:46:08;;;;;;;15.50;11.80;;;;;;;8.66;85.10;97724.23;226935;1273;22664;-81
2024/03/11 06:51:12;;;;;;;14.60;11.60;;;;;;;8.74;85.34;97726.67;226838;1270;22580;-82
2024/03/11 06:56:15;;;;;;;13.20;11.30;;;;;;;8.82;85.47;97728.30;226792;1267;22553;-80
2024/03/11 07:01:17;;;;;;;15.00;11.80;;;;;;;8.97;85.44;97736.36;226700;1250;22722;-83
2024/03/11 07:06:21;;;;;;;15.50;12.50;;;;;;;9.13;85.61;97741.45;226635;1257;22531;-81
2024/03/11 07:11:23;;;;;;;13.60;11.60;;;;;;;9.26;85.34;97746.75;226492;1265;25173;-81
2024/03/11 07:16:27;;;;;;;17.10;12.00;;;;;;;9.33;85.15;97741.27;226429;1265;25949;-82
2024/03/11 07:21:29;;;;;;;13.80;11.60;;;;;;;9.38;85.00;97743.64;226649;1266;22682;-84
2024/03/11 07:26:31;;;;;;;15.10;11.30;;;;;;;9.43;84.92;97744.38;226271;1266;23137;-85
2024/03/11 07:31:33;;;;;;;15.70;11.90;;;;;;;9.50;84.83;97744.20;226135;1266;22565;-82
2024/03/11 07:36:36;;;;;;;23.40;17.30;;;;;;;9.61;84.76;97756.83;226290;1253;22558;-80
2024/03/11 07:41:38;;;;;;;18.70;14.70;;;;;;;9.73;84.65;97755.97;226512;1252;22545;-83
2024/03/11 07:46:40;;;;;;;15.50;12.40;;;;;;;9.89;84.52;97755.39;226270;1265;22568;-83
2024/03/11 07:51:42;;;;;;;16.80;13.40;;;;;;;10.04;84.30;97758.59;226274;1249;22571;-83
2024/03/11 07:56:44;;;;;;;14.80;12.20;;;;;;;10.23;84.18;97756.21;226226;1273;22743;-82
2024/03/11 08:01:47;;;;;;;15.70;12.20;;;;;;;10.41;83.98;97762.87;226233;1257;24683;-82
2024/03/11 08:06:52;;;;;;;14.70;12.40;;;;;;;10.60;83.73;97764.45;226099;1265;23030;-85
2024/03/11 08:11:55;;;;;;;15.80;12.80;;;;;;;10.74;83.39;97769.90;226448;1267;24327;-84
2024/03/11 08:16:57;;;;;;;15.40;12.00;;;;;;;10.90;83.26;97778.20;226638;1266;22537;-87
2024/03/11 08:21:59;;;;;;;16.00;12.90;;;;;;;11.07;82.89;97776.52;226649;1272;24923;-84
2024/03/11 08:27:04;;;;;;;14.40;12.30;;;;;;;11.24;82.77;97774.49;226878;1262;22548;-83
2024/03/11 08:32:12;;;;;;;15.90;12.20;;;;;;;11.46;82.46;97781.03;226803;1250;22542;-85
2024/03/11 08:37:16;;;;;;;18.10;12.10;;;;;;;11.63;82.10;97789.02;226838;1259;22524;-84
2024/03/11 08:42:19;;;;;;;14.20;12.40;;;;;;;11.78;81.89;97790.64;226695;1273;22807;-84
2024/03/11 08:47:23;;;;;;;15.30;12.50;;;;;;;11.94;81.38;97788.90;226753;1255;22550;-82
2024/03/11 08:52:25;;;;;;;15.70;12.10;;;;;;;12.10;81.20;97791.11;226822;1265;22527;-84
2024/03/11 08:57:27;;;;;;;13.30;11.70;;;;;;;12.28;81.03;97794.30;226834;1265;22523;-83
2024/03/11 09:02:30;;;;;;;14.00;11.20;;;;;;;12.47;80.49;97797.83;226672;1270;22535;-82
2024/03/11 09:07:32;;;;;;;14.40;10.80;;;;;;;12.67;80.40;97797.52;226678;1273;22527;-83
2024/03/11 09:12:37;;;;;;;14.30;10.70;;;;;;;12.90;79.90;97797.50;226847;1270;25407;-84
2024/03/11 09:17:50;;;;;;;13.10;11.40;;;;;;;13.16;79.87;97797.83;226804;1268;22891;-82
2024/03/11 09:22:57;;;;;;;15.00;11.90;;;;;;;13.42;79.25;97798.67;226159;1249;25443;-82
2024/03/11 09:28:00;;;;;;;13.70;10.60;;;;;;;13.62;78.62;97807.52;226696;1258;22558;-81
2024/03/11 09:33:06;;;;;;;12.80;10.80;;;;;;;13.73;78.45;97805.70;226616;1268;24228;-83
2024/03/11 09:38:08;;;;;;;14.60;10.80;;;;;;;13.83;77.87;97807.93;226389;1265;22548;-83
2024/03/11 09:43:12;;;;;;;12.40;10.60;;;;;;;13.90;77.68;97810.42;226477;1262;25262;-84
2024/03/11 09:48:14;;;;;;;14.00;11.10;;;;;;;14.02;77.61;97814.23;226677;1271;25246;-83
2024/03/11 09:53:20;;;;;;;15.20;11.40;;;;;;;14.16;77.05;97816.01;226586;1262;22542;-83
2024/03/11 09:58:23;;;;;;;18.10;11.90;;;;;;;14.25;76.53;97813.27;226719;1273;25914;-84
2024/03/11 10:03:27;;;;;;;13.70;11.10;;;;;;;14.34;76.44;97817.02;226648;1269;22549;-85
2024/03/11 10:08:35;;;;;;;15.20;11.80;;;;;;;14.38;75.73;97815.98;226723;1265;22517;-83
2024/03/11 10:13:43;;;;;;;14.00;11.20;;;;;;;14.37;75.61;97808.52;226663;1249;24030;-83
2024/03/11 10:19:14;;;;;;;14.60;10.80;;;;;;;14.31;75.50;97808.12;226607;1266;22686;-83
2024/03/11 10:24:18;;;;;;;11.20;9.70;;;;;;;14.25;75.32;97811.73;226585;1269;22530;-83
2024/03/11 10:29:31;;;;;;;14.20;11.00;;;;;;;14.27;75.26;97813.30;226637;1266;22560;-83
2024/03/11 10:34:53;;;;;;;13.90;10.60;;;;;;;14.30;75.10;97814.64;226521;1271;22536;-84
2024/03/11 10:40:00;;;;;;;12.70;9.40;;;;;;;14.26;74.74;97810.32;226661;1270;24372;-84
2024/03/11 10:45:07;;;;;;;11.90;9.60;;;;;;;14.18;74.51;97807.02;226412;1273;22530;-85
2024/03/11 10:50:14;;;;;;;12.50;10.40;;;;;;;13.99;74.51;97811.89;226668;1252;22537;-81
2024/03/11 10:55:20;;;;;;;12.90;10.30;;;;;;;13.79;74.64;97814.16;226829;1270;22479;-83
2024/03/11 11:00:24;;;;;;;14.10;10.40;;;;;;;13.72;75.01;97817.79;226717;1250;22541;-84
2024/03/11 11:05:32;;;;;;;14.10;10.80;;;;;;;13.77;75.30;97818.95;226660;1265;22554;-84
2024/03/11 11:10:36;;;;;;;14.00;11.00;;;;;;;13.83;75.13;97817.20;226676;1269;22534;-84
2024/03/11 11:15:41;;;;;;;13.30;11.20;;;;;;;13.85;75.11;97817.10;226739;1262;23297;-83
2024/03/11 11:20:49;;;;;;;15.20;11.60;;;;;;;13.78;74.96;97813.67;226645;1262;22531;-84
2024/03/11 11:25:55;;;;;;;13.70;11.30;;;;;;;13.84;75.17;97814.09;226674;1270;22667;-83
2024/03/11 11:31:11;;;;;;;16.50;11.50;;;;;;;13.83;75.22;97814.52;226647;1270;22612;-84
2024/03/11 11:36:39;;;;;;;14.80;12.10;;;;;;;13.82;74.78;97815.01;226713;1268;25361;-84
2024/03/11 11:41:49;;;;;;;15.00;11.20;;;;;;;13.87;75.22;97810.98;226584;1265;23461;-85
2024/03/11 11:47:14;;;;;;;14.20;11.70;;;;;;;13.94;75.13;97810.44;226232;1265;22545;-84
2024/03/11 11:52:18;;;;;;;14.80;12.10;;;;;;;14.01;75.41;97812.45;226337;1250;22536;-82
2024/03/11 11:57:24;;;;;;;14.40;12.20;;;;;;;14.09;75.04;97804.67;226360;1266;22574;-82
2024/03/11 12:02:33;;;;;;;14.20;12.00;;;;;;;14.19;75.15;97802.31;226379;1259;22536;-85
2024/03/11 12:07:43;;;;;;;15.10;12.60;;;;;;;14.26;74.79;97803.88;226413;1249;22561;-82
2024/03/11 12:12:48;;;;;;;14.30;12.00;;;;;;;14.31;74.65;97804.48;226247;1269;22547;-81
2024/03/11 12:17:54;;;;;;;15.60;12.40;;;;;;;14.37;74.53;97802.90;226235;1254;23031;-83
2024/03/11 12:23:00;;;;;;;17.90;12.10;;;;;;;14.41;74.41;97805.06;226278;1273;22579;-82
2024/03/11 12:28:03;;;;;;;15.90;13.00;;;;;;;14.41;74.11;97808.30;226345;1266;23053;-83
2024/03/11 12:33:09;;;;;;;15.50;12.80;;;;;;;14.35;74.03;97801.63;226472;1254;22535;-81
2024/03/11 12:38:13;;;;;;;17.40;12.80;;;;;;;14.38;74.35;97805.48;226438;1262;22586;-81
2024/03/11 12:43:20;;;;;;;17.20;12.30;;;;;;;14.47;74.17;97803.32;226580;1270;22546;-85
2024/03/11 12:48:25;;;;;;;12.50;9.60;;;;;;;14.50;74.01;97807.63;226576;1271;24917;-83
2024/03/11 12:53:31;;;;;;;14.30;11.20;;;;;;;14.57;73.73;97808.87;226471;1260;227249;-83
2024/03/11 12:58:36;;;;;;;15.20;11.60;;;;;;;14.66;73.63;97811.30;226698;1259;22561;-87
2024/03/11 13:03:44;;;;;;;14.80;11.10;;;;;;;14.70;73.62;97809.65;226563;1267;22587;-79
2024/03/11 13:08:47;;;;;;;18.20;12.20;;;;;;;14.74;73.52;97813.02;226703;1271;25403;-79
2024/03/11 13:13:49;;;;;;;13.10;10.70;;;;;;;14.77;73.25;97814.77;226574;1262;23012;-80
2024/03/11 13:18:52;;;;;;;13.90;10.60;;;;;;;14.77;72.87;97813.98;226567;1255;22562;-81
2024/03/11 13:23:59;;;;;;;14.80;10.30;;;;;;;14.69;72.63;97815.16;226514;1255;25233;-81
2024/03/11 13:29:02;;;;;;;14.60;10.10;;;;;;;14.60;72.88;97817.97;226391;1260;22736;-80
2024/03/11 13:34:05;;;;;;;14.00;10.60;;;;;;;14.59;73.15;97816.10;226277;1262;22917;-82
2024/03/11 13:39:15;;;;;;;11.60;9.30;;;;;;;14.58;72.99;97813.99;226263;1259;22539;-82
2024/03/11 13:44:20;;;;;;;11.80;9.30;;;;;;;14.58;73.00;97813.14;226444;1264;22550;-80
2024/03/11 13:49:24;;;;;;;11.70;9.70;;;;;;;14.59;73.13;97811.84;226509;1269;22559;-81
2024/03/11 13:54:29;;;;;;;14.20;9.60;;;;;;;14.61;73.16;97815.91;226437;1271;22540;-80
2024/03/11 13:59:32;;;;;;;12.50;9.70;;;;;;;14.56;72.70;97813.63;226163;1256;23742;-80
2024/03/11 14:04:34;;;;;;;13.80;9.60;;;;;;;14.47;72.86;97813.58;226423;1260;22654;-81
2024/03/11 14:09:36;;;;;;;13.80;10.60;;;;;;;14.38;72.79;97807.21;226587;1268;22549;-79
2024/03/11 14:14:40;;;;;;;13.40;10.20;;;;;;;14.35;73.13;97804.89;226467;1272;22544;-79
2024/03/11 14:19:42;;;;;;;14.60;9.80;;;;;;;14.32;73.17;97804.82;226416;1259;22525;-80
2024/03/11 14:24:44;;;;;;;13.60;10.50;;;;;;;14.31;73.21;97804.56;226312;1273;22522;-78
2024/03/11 14:29:47;;;;;;;13.50;10.00;;;;;;;14.31;73.21;97807.17;226355;1272;23451;-81
2024/03/11 14:34:49;;;;;;;13.10;10.20;;;;;;;14.29;73.41;97807.45;226370;1266;22555;-81
2024/03/11 14:39:54;;;;;;;13.30;10.60;;;;;;;14.24;73.39;97811.08;226432;1266;22565;-81
2024/03/11 14:44:57;;;;;;;17.70;12.80;;;;;;;14.20;73.47;97802.70;226540;1253;22566;-81
2024/03/11 14:50:00;;;;;;;17.60;14.00;;;;;;;14.16;73.68;97807.83;226557;1256;22534;-84
2024/03/11 14:55:03;;;;;;;18.40;14.30;;;;;;;14.05;74.00;97807.83;226482;1250;22566;-82
2024/03/11 15:00:20;;;;;;;20.60;15.60;;;;;;;13.98;74.63;97805.05;226671;1270;23021;-81
2024/03/11 15:05:24;;;;;;;26.00;16.10;;;;;;;13.88;74.66;97802.95;226560;1271;22534;-82
2024/03/11 15:10:32;;;;;;;17.60;14.50;;;;;;;13.77;75.09;97809.77;226274;1271;22533;-83
2024/03/11 15:15:42;;;;;;;19.90;14.70;;;;;;;13.63;75.00;97809.29;226412;1273;22553;-82
2024/03/11 15:20:48;;;;;;;20.90;15.20;;;;;;;13.56;75.28;97806.38;226469;1272;22535;-82
2024/03/11 15:25:53;;;;;;;22.40;14.80;;;;;;;13.48;75.51;97803.95;226543;1273;22548;-81
2024/03/11 15:30:56;;;;;;;17.90;14.40;;;;;;;13.40;75.55;97807.39;226732;1273;22544;-82
2024/03/11 15:35:59;;;;;;;20.70;13.50;;;;;;;13.34;75.37;97806.80;226785;1273;22524;-82
2024/03/11 15:41:01;;;;;;;20.10;14.30;;;;;;;13.26;75.82;97812.30;226643;1271;22572;-80
2024/03/11 15:46:03;;;;;;;22.20;17.70;;;;;;;13.20;75.72;97812.66;226804;1271;23031;-83
2024/03/11 15:51:10;;;;;;;24.00;18.20;;;;;;;13.01;76.03;97811.29;226752;1273;22517;-83
2024/03/11 15:56:15;;;;;;;23.10;18.20;;;;;;;12.81;76.52;97806.73;226683;1273;22537;-83
2024/03/11 16:01:20;;;;;;;19.60;15.20;;;;;;;12.62;76.89;97810.05;226671;1273;22548;-82
2024/03/11 16:06:28;;;;;;;20.40;16.40;;;;;;;12.44;77.10;97814.54;226717;1272;22555;-83
2024/03/11 16:11:31;;;;;;;20.20;16.20;;;;;;;12.27;77.43;97813.98;226739;1271;22534;-82
2024/03/11 16:16:33;;;;;;;23.60;16.30;;;;;;;12.10;77.86;97815.03;226689;1273;22549;-83
2024/03/11 16:21:36;;;;;;;21.60;16.20;;;;;;;11.92;78.11;97820.52;226685;1269;22530;-84
2024/03/11 16:26:38;;;;;;;23.10;16.80;;;;;;;11.80;78.53;97821.10;226708;1273;22542;-83
2024/03/11 16:31:40;;;;;;;22.20;16.00;;;;;;;11.68;78.83;97824.08;226787;1272;22564;-82
2024/03/11 16:36:44;;;;;;;22.90;16.20;;;;;;;11.57;79.25;97823.69;226765;1273;22531;-83
2024/03/11 16:41:46;;;;;;;23.30;17.60;;;;;;;11.48;79.54;97833.04;226758;1272;22533;-83
2024/03/11 16:46:49;;;;;;;23.30;18.30;;;;;;;11.41;79.88;97838.81;226742;1273;25331;-81
2024/03/11 16:51:52;;;;;;;26.60;20.20;;;;;;;11.33;80.03;97850.17;226714;1272;22544;-82
2024/03/11 16:56:55;;;;;;;28.70;21.10;;;;;;;11.26;80.46;97850.69;226812;1272;22561;-82
2024/03/11 17:01:58;;;;;;;29.50;21.90;;;;;;;11.19;80.64;97851.26;226754;1271;22548;-84
2024/03/11 17:06:59;;;;;;;31.60;22.90;;;;;;;11.13;81.02;97853.13;226769;1270;22522;-83
2024/03/11 17:12:02;;;;;;;33.90;23.20;;;;;;;11.10;81.37;97857.36;226680;1266;22949;-82
2024/03/11 17:17:06;;;;;;;29.30;23.40;;;;;;;11.06;81.56;97861.52;226710;1273;25147;-83
2024/03/11 17:22:10;;;;;;;28.70;21.80;;;;;;;11.03;81.86;97867.27;226754;1271;22537;-84
2024/03/11 17:27:12;;;;;;;27.60;21.70;;;;;;;10.99;81.92;97874.69;226804;1270;22541;-82
2024/03/11 17:32:15;;;;;;;28.30;23.00;;;;;;;10.97;82.18;97878.14;226758;1273;22534;-83
2024/03/11 17:37:20;;;;;;;30.20;22.60;;;;;;;10.94;82.33;97880.27;226808;1273;22530;-83
2024/03/11 17:42:26;;;;;;;29.50;21.60;;;;;;;10.92;82.44;97881.57;226675;1273;22563;-84
2024/03/11 17:47:28;;;;;;;28.90;21.50;;;;;;;10.91;82.58;97886.16;226747;1272;22540;-83
2024/03/11 17:52:31;;;;;;;29.50;22.90;;;;;;;10.90;82.76;97890.61;226788;1272;22538;-83
2024/03/11 17:57:33;;;;;;;26.40;22.70;;;;;;;10.89;83.10;97896.67;226656;1269;22701;-82
2024/03/11 18:02:38;;;;;;;30.50;22.50;;;;;;;10.87;83.10;97896.84;226776;1272;22534;-83
2024/03/11 18:07:41;;;;;;;29.90;24.70;;;;;;;10.82;83.33;97898.34;226545;1273;22533;-83
2024/03/11 18:12:46;;;;;;;30.10;24.30;;;;;;;10.76;83.35;97899.05;226877;1267;22642;-83
2024/03/11 18:17:50;;;;;;;35.40;27.40;;;;;;;10.68;83.39;97899.78;226764;1273;22534;-82
2024/03/11 18:22:54;;;;;;;33.90;28.20;;;;;;;10.59;83.54;97895.35;226722;1272;22521;-83
2024/03/11 18:27:58;;;;;;;32.50;25.60;;;;;;;10.52;83.80;97896.36;226763;1273;22534;-83
2024/03/11 18:33:01;;;;;;;29.40;24.20;;;;;;;10.45;84.06;97899.38;226695;1273;22534;-82
2024/03/11 18:38:04;;;;;;;27.40;22.60;;;;;;;10.39;84.31;97904.45;226656;1271;22696;-83
2024/03/11 18:43:10;;;;;;;27.80;21.60;;;;;;;10.31;84.45;97908.81;226632;1272;22543;-81
2024/03/11 18:48:14;;;;;;;30.00;23.90;;;;;;;10.22;84.69;97916.40;226773;1272;22532;-82
2024/03/11 18:53:18;;;;;;;30.80;24.40;;;;;;;10.17;84.86;97916.77;226705;1273;22541;-83
2024/03/11 18:58:20;;;;;;;31.60;24.40;;;;;;;10.12;84.91;97921.13;226721;1273;22600;-83
2024/03/11 19:03:22;;;;;;;32.40;25.90;;;;;;;10.09;85.09;97921.34;226788;1273;22538;-84
2024/03/11 19:08:24;;;;;;;39.20;29.00;;;;;;;10.04;85.35;97919.45;226694;1272;22575;-82
2024/03/11 19:13:27;;;;;;;35.00;25.20;;;;;;;10.01;85.52;97917.79;226755;1273;22533;-84
2024/03/11 19:18:29;;;;;;;33.70;24.10;;;;;;;9.97;85.57;97919.55;226838;1273;22553;-83
2024/03/11 19:23:34;;;;;;;32.00;25.40;;;;;;;9.90;85.87;97919.35;226753;1269;22539;-82
2024/03/11 19:28:37;;;;;;;32.20;25.30;;;;;;;9.84;85.98;97918.93;226695;1269;22542;-83
2024/03/11 19:33:39;;;;;;;32.00;24.20;;;;;;;9.78;86.11;97919.23;226833;1273;22595;-82
2024/03/11 19:38:55;;;;;;;31.90;24.90;;;;;;;9.74;86.14;97917.65;226688;1273;22534;-82
2024/03/11 19:44:24;;;;;;;38.90;28.10;;;;;;;9.72;86.51;97921.83;226735;1272;22546;-84
2024/03/11 19:50:10;;;;;;;37.00;27.40;;;;;;;9.69;86.30;97928.31;226810;1273;23306;-83
2024/03/11 19:55:37;;;;;;;58.80;44.40;;;;;;;9.67;86.65;97930.17;226604;1273;22541;-85
2024/03/11 20:00:50;;;;;;;83.10;62.40;;;;;;;9.67;86.76;97934.02;226801;1273;25414;-82
2024/03/11 20:06:31;;;;;;;54.90;43.60;;;;;;;9.68;86.83;97930.98;226787;1273;22547;-82
2024/03/11 20:11:58;;;;;;;53.00;40.90;;;;;;;9.66;86.91;97929.77;226635;1272;22831;-83
2024/03/11 20:17:20;;;;;;;54.30;41.60;;;;;;;9.63;86.94;97933.98;226709;1273;22543;-83
2024/03/11 20:22:47;;;;;;;54.90;41.20;;;;;;;9.58;86.85;97933.35;226714;1270;22623;-83
2024/03/11 20:28:00;;;;;;;54.10;41.00;;;;;;;9.55;87.06;97931.77;226706;1273;24285;-83
2024/03/11 20:33:06;;;;;;;58.40;41.70;;;;;;;9.52;86.91;97933.01;226814;1273;25246;-84
2024/03/11 20:38:08;;;;;;;57.40;42.20;;;;;;;9.47;86.89;97932.13;226739;1273;22539;-83
2024/03/11 20:43:11;;;;;;;60.00;43.30;;;;;;;9.42;86.91;97929.81;226693;1273;22541;-83
2024/03/11 20:48:14;;;;;;;56.80;40.50;;;;;;;9.35;86.83;97937.10;226822;1272;22565;-84
2024/03/11 20:53:18;;;;;;;59.30;41.10;;;;;;;9.27;86.64;97934.13;226695;1273;23385;-83
2024/03/11 20:58:21;;;;;;;64.10;42.10;;;;;;;9.19;86.89;97937.15;226655;1267;22525;-83
2024/03/11 21:03:24;;;;;;;60.70;42.40;;;;;;;9.16;86.86;97939.55;226715;1273;22567;-83
2024/03/11 21:08:26;;;;;;;64.80;46.50;;;;;;;9.14;86.99;97938.29;226801;1273;22621;-83
2024/03/11 21:13:28;;;;;;;62.90;44.20;;;;;;;9.11;87.05;97941.42;226750;1273;22535;-83
2024/03/11 21:18:30;;;;;;;61.50;43.60;;;;;;;9.07;86.91;97942.27;226842;1273;25332;-84
2024/03/11 21:23:39;;;;;;;62.40;43.90;;;;;;;9.02;87.00;97939.27;226819;1272;23303;-84
2024/03/11 21:28:41;;;;;;;62.10;43.80;;;;;;;8.98;86.93;97938.36;226802;1273;22538;-83
2024/03/11 21:33:44;;;;;;;58.20;41.30;;;;;;;8.95;86.95;97940.25;226822;1273;22551;-83
2024/03/11 21:38:46;;;;;;;52.00;39.00;;;;;;;8.91;86.96;97938.82;226881;1273;22533;-84
2024/03/11 21:43:48;;;;;;;56.60;39.40;;;;;;;8.86;86.90;97939.30;226895;1273;22640;-82
2024/03/11 21:48:51;;;;;;;54.40;39.40;;;;;;;8.80;87.03;97937.77;226736;1273;22552;-83
2024/03/11 21:53:54;;;;;;;52.40;38.20;;;;;;;8.74;87.15;97936.52;226835;1270;22540;-84
2024/03/11 21:58:57;;;;;;;57.10;40.60;;;;;;;8.72;86.92;97941.48;226951;1267;22559;-83
2024/03/11 22:03:59;;;;;;;55.10;38.00;;;;;;;8.68;87.37;97949.19;226863;1273;22556;-83
2024/03/11 22:09:09;;;;;;;49.50;35.20;;;;;;;8.63;87.29;97950.66;226981;1273;22550;-84
2024/03/11 22:14:12;;;;;;;45.10;34.30;;;;;;;8.59;87.33;97956.98;226879;1273;22544;-84
2024/03/11 22:19:14;;;;;;;45.60;33.70;;;;;;;8.56;87.21;97958.05;226778;1270;22538;-83
2024/03/11 22:24:17;;;;;;;43.10;33.50;;;;;;;8.54;87.42;97957.08;226864;1273;22548;-82
2024/03/11 22:29:19;;;;;;;45.70;33.90;;;;;;;8.51;87.41;97957.82;226919;1270;23296;-82
2024/03/11 22:34:25;;;;;;;44.60;33.30;;;;;;;8.47;87.46;97954.39;226880;1273;24242;-83
2024/03/11 22:39:28;;;;;;;44.00;31.60;;;;;;;8.46;87.74;97950.75;226891;1271;24293;-82
2024/03/11 22:44:30;;;;;;;45.00;33.90;;;;;;;8.45;87.74;97952.27;226890;1268;23812;-82
2024/03/11 22:49:34;;;;;;;46.50;33.10;;;;;;;8.45;87.48;97949.66;226939;1273;22538;-82
2024/03/11 22:54:38;;;;;;;48.10;34.40;;;;;;;8.45;87.68;97944.23;226931;1272;22585;-82
2024/03/11 22:59:40;;;;;;;44.50;33.30;;;;;;;8.42;87.61;97941.88;226728;1270;24336;-83
2024/03/11 23:04:43;;;;;;;51.20;35.40;;;;;;;8.40;87.51;97940.80;226844;1270;22543;-82
2024/03/11 23:09:46;;;;;;;50.20;35.30;;;;;;;8.36;87.96;97939.20;226902;1273;22541;-82
2024/03/11 23:14:49;;;;;;;50.90;35.70;;;;;;;8.35;88.07;97937.01;226942;1272;22550;-82